Time;durP1;ratioP1;P1;durP2;ratioP2;P2;SDS_P1;SDS_P2;PMS_P1;PMS_P2;Temp;Humidity;BMP_temperature;BMP_pressure;BME280_temperature;BME280_humidity;BME280_pressure;Samples;Min_cycle;Max_cycle;Signal;HPM_P1;HPM_P2
2021/01/07 00:00:57;;;;;;;6.88;6.18;;;10.00;99.90;;;;;;4948495;29;20198;-27
2021/01/07 00:03:27;;;;;;;8.02;7.00;;;10.00;99.90;;;;;;4948807;29;20896;-27
2021/01/07 00:05:58;;;;;;;6.70;5.93;;;10.00;99.90;;;;;;4954189;29;20622;-27
2021/01/07 00:08:28;;;;;;;7.63;6.13;;;10.00;99.90;;;;;;4954189;29;20199;-27
2021/01/07 00:10:58;;;;;;;1755.25;316.05;;;10.00;99.90;;;;;;4953439;29;20356;-27
2021/01/07 00:13:29;;;;;;;8.45;6.00;;;10.00;99.90;;;;;;4954378;29;20298;-26
2021/01/07 00:15:59;;;;;;;6.50;5.90;;;10.10;99.90;;;;;;4953916;29;20289;-26
2021/01/07 00:18:30;;;;;;;5.65;5.15;;;10.00;99.90;;;;;;4953983;29;20253;-27
2021/01/07 00:21:00;;;;;;;6.97;6.35;;;9.90;99.90;;;;;;4954024;29;20206;-26
2021/01/07 00:23:30;;;;;;;6.35;5.72;;;9.90;99.90;;;;;;4953345;29;20298;-25
2021/01/07 00:26:00;;;;;;;8.23;6.22;;;9.80;99.90;;;;;;4951265;29;20205;-25
2021/01/07 00:28:32;;;;;;;7.32;6.30;;;9.80;99.90;;;;;;4954198;29;20237;-25
2021/01/07 00:31:02;;;;;;;7.07;6.38;;;9.80;99.90;;;;;;4950510;29;20218;-26
2021/01/07 00:33:32;;;;;;;6.35;5.75;;;9.70;99.90;;;;;;4953336;29;20268;-26
2021/01/07 00:36:02;;;;;;;7.40;5.93;;;9.70;99.90;;;;;;4952018;29;20213;-26
2021/01/07 00:38:32;;;;;;;6.53;5.90;;;9.80;99.90;;;;;;4952329;29;20194;-26
2021/01/07 00:41:02;;;;;;;6.68;5.45;;;9.70;99.90;;;;;;4952317;29;20237;-26
2021/01/07 00:43:33;;;;;;;6.15;5.60;;;9.70;99.90;;;;;;4950833;29;20198;-26
2021/01/07 00:46:04;;;;;;;5.85;5.35;;;9.60;99.90;;;;;;4952165;29;20607;-25
2021/01/07 00:48:34;;;;;;;8.20;6.05;;;9.70;99.90;;;;;;4950153;29;20211;-26
2021/01/07 00:51:04;;;;;;;7.35;6.75;;;9.70;99.90;;;;;;4952078;29;20233;-25
2021/01/07 00:53:34;;;;;;;6.90;6.22;;;9.60;99.90;;;;;;4950730;29;20247;-26
2021/01/07 00:56:05;;;;;;;6.63;5.97;;;9.60;99.90;;;;;;4947989;29;20207;-25
2021/01/07 00:58:36;;;;;;;7.40;6.38;;;9.50;99.90;;;;;;4949857;29;20190;-26
2021/01/07 01:01:06;;;;;;;6.07;5.57;;;9.50;99.90;;;;;;4949859;29;20633;-26
2021/01/07 01:03:36;;;;;;;5.18;4.78;;;9.50;99.90;;;;;;4949881;29;20194;-26
2021/01/07 01:06:06;;;;;;;4.90;4.50;;;9.60;99.90;;;;;;4951631;29;20256;-26
2021/01/07 01:08:36;;;;;;;6.20;5.70;;;9.60;99.90;;;;;;4951852;28;20201;-27
2021/01/07 01:11:07;;;;;;;6.88;6.22;;;9.60;99.90;;;;;;4952074;29;20260;-27
2021/01/07 01:13:38;;;;;;;6.65;5.95;;;9.60;99.90;;;;;;4953424;29;20674;-27
2021/01/07 01:16:08;;;;;;;8.50;5.90;;;9.60;99.90;;;;;;4951003;29;20313;-26
2021/01/07 01:18:39;;;;;;;5.65;4.90;;;9.50;99.90;;;;;;4951911;29;20193;-27
2021/01/07 01:21:09;;;;;;;6.13;4.65;;;9.60;99.90;;;;;;4950140;29;20213;-26
2021/01/07 01:23:39;;;;;;;6.15;5.65;;;9.50;99.90;;;;;;4944214;29;20201;-26
2021/01/07 01:26:09;;;;;;;5.18;4.70;;;9.40;99.90;;;;;;4951175;29;20213;-26
2021/01/07 01:28:41;;;;;;;5.55;4.60;;;9.40;99.90;;;;;;4951673;29;20202;-38
2021/01/07 01:31:11;;;;;;;4.28;3.80;;;9.30;99.90;;;;;;4950530;29;20221;-25
2021/01/07 01:33:41;;;;;;;4.88;3.80;;;9.30;99.90;;;;;;4947947;29;20268;-26
2021/01/07 01:36:12;;;;;;;3.85;3.45;;;9.20;99.90;;;;;;4949904;29;20213;-26
2021/01/07 01:38:42;;;;;;;5.30;2.70;;;9.20;99.90;;;;;;4949503;29;20793;-32
2021/01/07 01:41:12;;;;;;;752.03;106.63;;;9.20;99.90;;;;;;4951286;29;20205;-26
2021/01/07 01:43:43;;;;;;;1999.90;417.80;;;9.30;99.90;;;;;;4951186;29;20189;-26
2021/01/07 01:46:13;;;;;;;1857.55;301.77;;;9.40;99.90;;;;;;4948597;29;20201;-27
2021/01/07 01:48:44;;;;;;;4.00;2.85;;;9.50;99.90;;;;;;4951047;29;20201;-26
2021/01/07 01:51:16;;;;;;;4.25;2.60;;;9.50;99.90;;;;;;4948877;29;20593;-26
2021/01/07 01:53:46;;;;;;;3.97;3.05;;;9.30;99.90;;;;;;4951110;29;20234;-25
2021/01/07 01:56:17;;;;;;;2.70;2.50;;;9.20;99.90;;;;;;4949681;29;20201;-27
2021/01/07 01:58:49;;;;;;;2.95;2.72;;;9.20;99.90;;;;;;4950208;29;20209;-26
2021/01/07 02:01:19;;;;;;;3.20;2.90;;;9.10;99.90;;;;;;4951563;29;20253;-27
2021/01/07 02:03:54;;;;;;;2.88;2.67;;;9.20;99.90;;;;;;4948048;29;20278;-26
2021/01/07 02:06:28;;;;;;;3.97;3.67;;;9.10;99.90;;;;;;4951413;29;20201;-26
2021/01/07 02:08:59;;;;;;;4.03;3.72;;;9.10;99.90;;;;;;4951149;29;20193;-27
2021/01/07 02:11:29;;;;;;;5.43;4.20;;;9.10;99.90;;;;;;4949105;29;20654;-26
2021/01/07 02:14:02;;;;;;;33.15;10.18;;;9.10;99.90;;;;;;4949549;29;20252;-27
2021/01/07 02:16:32;;;;;;;4.43;4.13;;;9.20;99.90;;;;;;4948395;29;20194;-27
2021/01/07 02:19:02;;;;;;;1999.90;693.92;;;9.20;99.90;;;;;;4945701;28;20216;-26
2021/01/07 02:21:38;;;;;;;5.05;4.05;;;9.20;99.90;;;;;;4948582;29;20201;-27
2021/01/07 02:24:10;;;;;;;5.13;4.72;;;9.40;99.90;;;;;;4947157;29;20205;-27
2021/01/07 02:26:42;;;;;;;4.53;4.13;;;9.30;99.90;;;;;;4950319;29;20190;-27
2021/01/07 02:29:12;;;;;;;5.90;5.38;;;9.30;99.90;;;;;;4948296;29;20194;-26
2021/01/07 02:31:42;;;;;;;8.10;7.30;;;9.20;99.90;;;;;;4949574;29;20213;-26
2021/01/07 02:34:13;;;;;;;5.70;5.10;;;9.20;99.90;;;;;;4950743;29;20229;-26
2021/01/07 02:36:44;;;;;;;6.00;5.50;;;9.20;99.90;;;;;;4951321;29;20233;-27
2021/01/07 02:39:14;;;;;;;6.97;6.05;;;9.20;99.90;;;;;;4949514;29;20280;-27
2021/01/07 02:41:51;;;;;;;6.57;5.97;;;9.20;99.90;;;;;;4950525;29;20700;-27
2021/01/07 02:44:21;;;;;;;8.25;6.63;;;9.10;99.90;;;;;;4950266;29;20633;-27
2021/01/07 02:46:53;;;;;;;7.95;7.25;;;9.10;99.90;;;;;;4949558;29;20221;-27
2021/01/07 02:49:23;;;;;;;8.68;7.88;;;9.10;99.90;;;;;;4948980;29;20217;-25
2021/01/07 02:51:54;;;;;;;9.85;8.35;;;9.10;99.90;;;;;;4950280;29;20225;-26
2021/01/07 02:54:24;;;;;;;8.93;8.10;;;9.10;99.90;;;;;;4947961;29;20242;-25
2021/01/07 02:56:55;;;;;;;9.07;8.27;;;9.10;99.90;;;;;;4949255;29;20212;-25
2021/01/07 02:59:25;;;;;;;9.93;9.00;;;9.10;99.90;;;;;;4949876;29;20201;-29
2021/01/07 03:01:55;;;;;;;9.02;8.32;;;9.10;99.90;;;;;;4950305;29;20268;-25
2021/01/07 03:04:25;;;;;;;10.25;9.23;;;9.10;99.90;;;;;;4946219;29;20205;-26
2021/01/07 03:06:56;;;;;;;10.45;9.45;;;9.10;99.90;;;;;;4948542;29;20252;-26
2021/01/07 03:09:26;;;;;;;10.45;9.55;;;9.10;99.90;;;;;;4950103;29;20293;-26
2021/01/07 03:11:56;;;;;;;12.60;11.38;;;9.10;99.90;;;;;;4949174;29;20288;-26
2021/01/07 03:14:26;;;;;;;13.45;12.35;;;9.10;99.90;;;;;;4949465;29;20205;-27
2021/01/07 03:16:59;;;;;;;13.75;12.65;;;9.00;99.90;;;;;;4949266;29;20684;-26
2021/01/07 03:19:30;;;;;;;13.43;12.25;;;9.00;99.90;;;;;;4947857;29;20650;-26
2021/01/07 03:22:03;;;;;;;15.18;13.65;;;9.00;99.90;;;;;;4950091;29;20197;-27
2021/01/07 03:24:33;;;;;;;13.55;12.20;;;9.00;99.90;;;;;;4950214;29;20186;-26
2021/01/07 03:27:03;;;;;;;12.75;11.57;;;9.10;99.90;;;;;;4948120;29;20228;-27
2021/01/07 03:29:33;;;;;;;14.60;13.38;;;9.10;99.90;;;;;;4948816;29;20230;-25
2021/01/07 03:32:05;;;;;;;15.05;13.55;;;9.10;99.90;;;;;;4952465;28;20221;-26
2021/01/07 03:34:35;;;;;;;13.55;12.38;;;9.10;99.90;;;;;;4954588;29;20198;-27
2021/01/07 03:37:06;;;;;;;17.38;15.77;;;9.20;99.90;;;;;;4954315;29;20561;-25
2021/01/07 03:39:36;;;;;;;17.48;15.95;;;9.10;99.90;;;;;;4954798;29;20205;-27
2021/01/07 03:42:06;;;;;;;14.40;13.20;;;9.10;99.90;;;;;;4953878;29;20210;-27
2021/01/07 03:44:36;;;;;;;18.85;17.20;;;9.10;99.90;;;;;;4952515;29;20202;-27
2021/01/07 03:47:06;;;;;;;17.63;16.02;;;9.10;99.90;;;;;;4953576;29;20260;-27
2021/01/07 03:49:36;;;;;;;16.35;14.85;;;9.10;99.90;;;;;;4949515;29;20222;-27
2021/01/07 03:52:08;;;;;;;18.33;16.42;;;9.00;99.90;;;;;;4952839;29;20237;-27
2021/01/07 03:54:38;;;;;;;18.77;17.00;;;9.00;99.90;;;;;;4952995;29;20653;-26
2021/01/07 03:57:08;;;;;;;19.15;17.15;;;9.00;99.90;;;;;;4952578;29;20272;-26
2021/01/07 03:59:38;;;;;;;17.55;15.80;;;9.00;99.90;;;;;;4952587;29;20195;-27
2021/01/07 04:02:08;;;;;;;17.00;15.40;;;9.00;99.90;;;;;;4950050;29;20566;-26
2021/01/07 04:04:38;;;;;;;16.90;15.30;;;9.10;99.90;;;;;;4951980;29;20205;-26
2021/01/07 04:07:10;;;;;;;28.35;16.80;;;9.00;99.90;;;;;;4952789;29;20209;-27
2021/01/07 04:09:40;;;;;;;1575.60;284.27;;;9.00;99.90;;;;;;4950404;29;20197;-27
2021/01/07 04:12:10;;;;;;;179.27;39.67;;;9.00;99.90;;;;;;4949440;29;20364;-26
2021/01/07 04:14:40;;;;;;;22.13;16.52;;;9.10;99.90;;;;;;4952303;29;20225;-26
2021/01/07 04:17:10;;;;;;;15.75;14.23;;;9.10;99.90;;;;;;4953060;29;20220;-25
2021/01/07 04:19:42;;;;;;;14.70;13.40;;;9.10;99.90;;;;;;4952442;29;20201;-26
2021/01/07 04:22:15;;;;;;;13.85;12.55;;;9.10;99.90;;;;;;4951437;29;20204;-25
2021/01/07 04:24:45;;;;;;;15.52;14.02;;;9.00;99.90;;;;;;4952600;29;20559;-26
2021/01/07 04:27:15;;;;;;;14.40;13.00;;;8.90;99.90;;;;;;4952403;29;20210;-27
2021/01/07 04:29:46;;;;;;;13.90;12.45;;;8.90;99.90;;;;;;4945694;29;20629;-26
2021/01/07 04:32:16;;;;;;;12.82;11.73;;;8.90;99.90;;;;;;4950526;29;20280;-26
2021/01/07 04:34:46;;;;;;;13.85;12.65;;;8.90;99.90;;;;;;4952307;29;20614;-27
2021/01/07 04:37:17;;;;;;;15.35;13.95;;;8.90;99.90;;;;;;4952655;29;20193;-26
2021/01/07 04:39:47;;;;;;;14.07;12.88;;;8.80;99.90;;;;;;4952798;29;20245;-27
2021/01/07 04:42:18;;;;;;;13.30;12.05;;;8.80;99.90;;;;;;4950974;28;20228;-27
2021/01/07 04:44:49;;;;;;;14.38;12.95;;;8.90;99.90;;;;;;4952364;29;20260;-28
2021/01/07 04:47:20;;;;;;;14.20;12.80;;;8.90;99.90;;;;;;4953632;29;20358;-25
2021/01/07 04:49:51;;;;;;;12.45;11.23;;;8.80;99.90;;;;;;4953433;29;20391;-24
2021/01/07 04:52:23;;;;;;;11.85;10.65;;;8.90;99.90;;;;;;4952857;29;20245;-27
2021/01/07 04:54:55;;;;;;;11.27;10.18;;;8.90;99.90;;;;;;4953359;29;20277;-26
2021/01/07 04:57:25;;;;;;;12.98;11.77;;;8.90;99.90;;;;;;4944937;29;20208;-26
2021/01/07 04:59:55;;;;;;;15.77;14.07;;;8.90;99.90;;;;;;4944068;29;20193;-26
2021/01/07 05:02:27;;;;;;;16.38;14.77;;;8.90;99.90;;;;;;4944707;29;20261;-26
2021/01/07 05:05:00;;;;;;;16.30;14.70;;;8.90;99.90;;;;;;4953105;29;20186;-27
2021/01/07 05:07:31;;;;;;;16.35;14.70;;;9.00;99.90;;;;;;4953125;29;20273;-26
2021/01/07 05:10:02;;;;;;;15.32;13.82;;;9.00;99.90;;;;;;4953139;29;20202;-27
2021/01/07 05:12:32;;;;;;;15.98;14.57;;;9.10;99.90;;;;;;4952551;29;20288;-26
2021/01/07 05:15:02;;;;;;;422.48;69.53;;;9.20;99.90;;;;;;4952622;29;20272;-26
2021/01/07 05:17:33;;;;;;;12.90;11.35;;;9.20;99.90;;;;;;4953274;29;20201;-26
2021/01/07 05:20:03;;;;;;;12.90;11.60;;;9.20;99.90;;;;;;4951668;29;20186;-26
2021/01/07 05:22:42;;;;;;;12.00;10.70;;;9.10;99.90;;;;;;4952819;29;20618;-27
2021/01/07 05:25:12;;;;;;;12.10;11.00;;;9.00;99.90;;;;;;4952555;29;20292;-27
2021/01/07 05:27:43;;;;;;;11.98;10.75;;;9.00;99.90;;;;;;4952361;29;20190;-25
2021/01/07 05:30:14;;;;;;;11.55;10.55;;;9.00;99.90;;;;;;4951376;29;20256;-27
2021/01/07 05:32:45;;;;;;;10.20;9.20;;;9.10;99.90;;;;;;4952482;29;20221;-27
2021/01/07 05:35:21;;;;;;;10.10;9.20;;;9.10;99.90;;;;;;4952710;29;20557;-27
2021/01/07 05:37:52;;;;;;;10.63;9.52;;;9.10;99.90;;;;;;4952437;29;20200;-27
2021/01/07 05:40:24;;;;;;;9.75;8.85;;;9.10;99.90;;;;;;4952211;29;20206;-27
2021/01/07 05:42:58;;;;;;;10.02;9.13;;;9.10;99.90;;;;;;4939713;29;20213;-27
2021/01/07 05:45:37;;;;;;;8.05;7.32;;;9.10;99.90;;;;;;4951482;29;20185;-28
2021/01/07 05:48:08;;;;;;;8.50;7.80;;;9.00;99.90;;;;;;4952589;29;20196;-27
2021/01/07 05:50:40;;;;;;;6.65;6.00;;;9.10;99.90;;;;;;4944189;29;20230;-27
2021/01/07 05:53:11;;;;;;;6.35;5.85;;;9.00;99.90;;;;;;4952111;29;20766;-27
2021/01/07 05:55:43;;;;;;;5.70;5.20;;;9.10;99.90;;;;;;4952141;28;20233;-28
2021/01/07 05:58:15;;;;;;;6.43;5.85;;;9.00;99.90;;;;;;4951928;29;20648;-27
2021/01/07 06:00:45;;;;;;;5.53;5.03;;;9.00;99.90;;;;;;4948710;29;20275;-27
2021/01/07 06:03:17;;;;;;;5.85;5.40;;;9.00;99.90;;;;;;4952366;29;20498;-27
2021/01/07 06:05:47;;;;;;;4.78;4.35;;;9.10;99.90;;;;;;4952256;29;20198;-27
2021/01/07 06:08:19;;;;;;;5.57;4.40;;;9.10;99.90;;;;;;4952192;29;20626;-27
2021/01/07 06:10:49;;;;;;;4.35;3.95;;;9.10;99.90;;;;;;4936770;29;20193;-27
2021/01/07 06:13:19;;;;;;;5.75;5.25;;;9.10;99.90;;;;;;4945946;29;20261;-26
2021/01/07 06:15:49;;;;;;;5.43;4.85;;;9.20;99.90;;;;;;4951351;29;20203;-26
2021/01/07 06:18:19;;;;;;;6.63;5.70;;;9.20;99.90;;;;;;4952155;29;20198;-27
2021/01/07 06:21:01;;;;;;;6.22;5.63;;;9.10;99.90;;;;;;4952142;29;20202;-27
2021/01/07 06:23:33;;;;;;;6.15;5.65;;;9.10;99.90;;;;;;4951550;29;20208;-27
2021/01/07 06:26:26;;;;;;;6.90;6.30;;;9.20;99.90;;;;;;4951650;29;20245;-28
2021/01/07 06:28:58;;;;;;;6.78;6.07;;;9.10;99.90;;;;;;4949289;29;20243;-27
2021/01/07 06:31:36;;;;;;;7.32;6.72;;;9.10;99.90;;;;;;4951592;29;20727;-27
2021/01/07 06:34:06;;;;;;;6.90;6.30;;;9.10;99.90;;;;;;4948882;29;20238;-26
2021/01/07 06:36:38;;;;;;;5.43;5.03;;;9.10;99.90;;;;;;4947821;29;20205;-26
2021/01/07 06:39:10;;;;;;;5.88;5.35;;;9.10;99.90;;;;;;4949063;29;20204;-26
2021/01/07 06:41:40;;;;;;;8.25;6.47;;;9.10;99.90;;;;;;4951012;29;20197;-26
2021/01/07 06:44:10;;;;;;;8.57;7.88;;;9.10;99.90;;;;;;4947989;29;20201;-26
2021/01/07 06:46:45;;;;;;;8.02;7.05;;;9.20;99.90;;;;;;4951508;29;20535;-26
2021/01/07 06:49:24;;;;;;;8.73;7.93;;;9.20;99.90;;;;;;4940098;29;20607;-27
2021/01/07 06:51:58;;;;;;;8.77;7.88;;;9.10;99.90;;;;;;4951217;29;20672;-26
2021/01/07 06:54:34;;;;;;;9.63;8.73;;;9.20;99.90;;;;;;4951045;29;20668;-26
2021/01/07 06:57:06;;;;;;;9.60;8.70;;;9.20;99.90;;;;;;4951106;29;20256;-26
2021/01/07 06:59:36;;;;;;;10.65;9.65;;;9.10;99.90;;;;;;4950895;29;20592;-27
2021/01/07 07:02:07;;;;;;;11.70;10.50;;;9.10;99.90;;;;;;4951965;29;20228;-28
2021/01/07 07:04:42;;;;;;;15.73;14.13;;;9.10;99.90;;;;;;4951176;29;20280;-27
2021/01/07 07:07:50;;;;;;;16.48;12.65;;;9.10;99.90;;;;;;4950814;29;20272;-27
2021/01/07 07:10:58;;;;;;;13.52;12.20;;;9.10;99.90;;;;;;4951342;29;20690;-28
2021/01/07 07:13:33;;;;;;;13.15;11.95;;;9.20;99.90;;;;;;4951585;29;20209;-28
2021/01/07 07:16:04;;;;;;;12.75;11.55;;;9.10;99.90;;;;;;4950746;29;20252;-27
2021/01/07 07:18:36;;;;;;;14.45;11.55;;;9.00;99.90;;;;;;4948222;29;20661;-28
2021/01/07 07:21:16;;;;;;;12.80;11.50;;;8.90;99.90;;;;;;4938584;29;20227;-27
2021/01/07 07:23:48;;;;;;;12.05;10.98;;;8.90;99.90;;;;;;4951609;29;20252;-27
2021/01/07 07:26:34;;;;;;;12.32;11.23;;;8.90;99.90;;;;;;4950710;29;20608;-27
2021/01/07 07:29:11;;;;;;;11.90;10.80;;;8.90;99.90;;;;;;4950955;29;20252;-28
2021/01/07 07:31:43;;;;;;;12.50;11.30;;;8.90;99.90;;;;;;4951225;29;20255;-28
2021/01/07 07:34:15;;;;;;;16.33;14.23;;;8.90;99.90;;;;;;4950137;29;20278;-27
2021/01/07 07:36:45;;;;;;;15.32;13.73;;;9.00;99.90;;;;;;4946669;29;20210;-27
2021/01/07 07:39:16;;;;;;;16.42;13.60;;;9.00;99.90;;;;;;4938341;29;20221;-27
2021/01/07 07:41:47;;;;;;;16.13;14.52;;;9.00;99.90;;;;;;4950773;29;20253;-28
2021/01/07 07:44:20;;;;;;;17.17;15.48;;;9.00;99.90;;;;;;4950311;29;20514;-27
2021/01/07 07:46:56;;;;;;;18.50;16.60;;;9.00;99.90;;;;;;4946513;29;20516;-27
2021/01/07 07:49:26;;;;;;;19.42;17.42;;;9.00;99.90;;;;;;4943704;29;20221;-27
2021/01/07 07:51:56;;;;;;;18.98;16.92;;;8.90;99.90;;;;;;4949794;29;20221;-27
2021/01/07 07:54:26;;;;;;;19.10;17.20;;;8.90;99.90;;;;;;4948871;29;20198;-27
2021/01/07 07:57:00;;;;;;;20.45;18.33;;;8.90;99.90;;;;;;4944853;29;20567;-28
2021/01/07 07:59:36;;;;;;;20.30;18.20;;;8.90;99.90;;;;;;4949106;29;20264;-28
2021/01/07 08:02:17;;;;;;;20.15;18.15;;;8.90;99.90;;;;;;4947216;29;20206;-27
2021/01/07 08:04:47;;;;;;;19.05;17.15;;;8.90;99.90;;;;;;4944004;29;20198;-26
2021/01/07 08:07:19;;;;;;;18.90;16.90;;;8.80;99.90;;;;;;4950807;29;20661;-26
2021/01/07 08:09:49;;;;;;;18.58;16.85;;;8.80;99.90;;;;;;4950623;29;20194;-26
2021/01/07 08:12:19;;;;;;;18.05;16.20;;;8.70;99.90;;;;;;4949746;29;20236;-27
2021/01/07 08:14:53;;;;;;;17.35;15.68;;;8.60;99.90;;;;;;4935636;29;20201;-27
2021/01/07 08:17:26;;;;;;;18.10;15.55;;;8.70;99.90;;;;;;4941917;29;20198;-27
2021/01/07 08:19:56;;;;;;;15.93;14.23;;;8.60;99.90;;;;;;4947786;29;20202;-27
2021/01/07 08:22:29;;;;;;;15.48;13.85;;;8.60;99.90;;;;;;4953989;29;20772;-27
2021/01/07 08:24:59;;;;;;;12.50;11.30;;;8.60;99.90;;;;;;4953761;29;20197;-26
2021/01/07 08:27:31;;;;;;;14.77;13.10;;;8.70;99.90;;;;;;4954393;29;20235;-27
2021/01/07 08:30:02;;;;;;;15.82;13.07;;;8.80;99.90;;;;;;4941936;29;20211;-26
2021/01/07 08:32:40;;;;;;;14.65;13.15;;;8.70;99.90;;;;;;4953804;29;20209;-26
2021/01/07 08:35:12;;;;;;;14.73;13.20;;;8.80;99.90;;;;;;4946440;29;20205;-27
2021/01/07 08:37:44;;;;;;;13.55;12.15;;;8.90;99.90;;;;;;4950383;29;20209;-27
2021/01/07 08:40:15;;;;;;;13.70;12.40;;;8.80;99.90;;;;;;4953331;29;20204;-28
2021/01/07 08:42:45;;;;;;;13.95;12.55;;;8.90;99.90;;;;;;4948065;29;20212;-28
2021/01/07 08:45:16;;;;;;;12.82;11.63;;;8.80;99.90;;;;;;4945706;29;20600;-27
2021/01/07 08:47:46;;;;;;;13.10;11.75;;;8.80;99.90;;;;;;4953765;29;20264;-27
2021/01/07 08:50:19;;;;;;;14.90;12.50;;;8.90;99.90;;;;;;4953613;29;20221;-28
2021/01/07 08:52:53;;;;;;;14.43;13.02;;;8.90;99.90;;;;;;4953092;29;20234;-27
2021/01/07 08:55:47;;;;;;;13.52;12.23;;;8.90;99.90;;;;;;4953519;29;20249;-27
2021/01/07 08:58:27;;;;;;;13.55;12.25;;;8.90;99.90;;;;;;4953557;29;20206;-27
2021/01/07 09:00:59;;;;;;;14.32;12.45;;;8.80;99.90;;;;;;4949668;29;20673;-28
2021/01/07 09:03:37;;;;;;;14.45;12.93;;;8.80;99.90;;;;;;4953789;29;20209;-27
2021/01/07 09:06:10;;;;;;;13.90;11.75;;;8.80;99.90;;;;;;4950661;29;20567;-27
2021/01/07 09:08:41;;;;;;;14.50;12.80;;;8.80;99.90;;;;;;4941986;29;20220;-28
2021/01/07 09:11:29;;;;;;;13.57;12.27;;;8.80;99.90;;;;;;4953146;29;20303;-27
2021/01/07 09:14:05;;;;;;;13.80;12.40;;;8.80;99.90;;;;;;4953266;29;20591;-28
2021/01/07 09:16:36;;;;;;;13.85;12.30;;;8.90;99.90;;;;;;4952085;29;20196;-27
2021/01/07 09:19:08;;;;;;;14.57;13.05;;;8.90;99.90;;;;;;4952778;29;20287;-27
2021/01/07 09:21:39;;;;;;;14.13;12.65;;;8.90;99.90;;;;;;4953223;29;20210;-27
2021/01/07 09:24:09;;;;;;;14.40;12.82;;;8.90;99.90;;;;;;4953117;29;20649;-28
2021/01/07 09:26:41;;;;;;;13.65;12.15;;;8.80;99.90;;;;;;4952687;29;20201;-27
2021/01/07 09:29:12;;;;;;;13.95;12.43;;;8.90;99.90;;;;;;4952119;28;20202;-28
2021/01/07 09:31:43;;;;;;;13.80;12.10;;;8.90;99.90;;;;;;4952756;29;20233;-27
2021/01/07 09:34:13;;;;;;;13.63;12.23;;;8.80;99.90;;;;;;4946527;29;20205;-27
2021/01/07 09:36:43;;;;;;;15.07;11.70;;;8.80;99.90;;;;;;4952801;29;20201;-28
2021/01/07 09:39:14;;;;;;;13.40;11.48;;;8.70;99.90;;;;;;4952585;29;20261;-28
2021/01/07 09:41:44;;;;;;;13.35;12.00;;;8.70;99.90;;;;;;4952915;29;20209;-28
2021/01/07 09:44:14;;;;;;;14.68;11.07;;;8.60;99.90;;;;;;4952272;29;20201;-29
2021/01/07 09:46:46;;;;;;;13.30;10.95;;;8.60;99.90;;;;;;4953154;29;20205;-27
2021/01/07 09:49:16;;;;;;;10.73;9.60;;;8.70;99.90;;;;;;4952545;29;20237;-27
2021/01/07 09:51:46;;;;;;;12.25;10.30;;;8.60;99.90;;;;;;4952867;29;20767;-28
2021/01/07 09:54:16;;;;;;;11.80;10.60;;;8.50;99.90;;;;;;4952737;29;20213;-28
2021/01/07 09:56:46;;;;;;;11.20;10.07;;;8.50;99.90;;;;;;4952206;29;20198;-27
2021/01/07 09:59:16;;;;;;;11.30;10.05;;;8.40;99.90;;;;;;4952745;29;20236;-27
2021/01/07 10:01:47;;;;;;;11.77;10.43;;;8.30;99.90;;;;;;4952850;29;20647;-28
2021/01/07 10:04:17;;;;;;;9.85;8.85;;;8.30;99.90;;;;;;4952335;29;20198;-27
2021/01/07 10:06:48;;;;;;;9.95;7.90;;;8.20;99.90;;;;;;4952591;29;20212;-27
2021/01/07 10:09:18;;;;;;;9.35;8.35;;;8.20;99.90;;;;;;4952304;29;20236;-30
2021/01/07 10:11:51;;;;;;;9.43;8.35;;;8.20;99.90;;;;;;4952126;29;20214;-28
2021/01/07 10:14:21;;;;;;;10.00;8.73;;;8.10;99.90;;;;;;4951563;29;20241;-28
2021/01/07 10:16:54;;;;;;;9.38;8.48;;;8.00;99.90;;;;;;4951751;29;20201;-27
2021/01/07 10:19:25;;;;;;;9.30;8.40;;;8.00;99.90;;;;;;4950742;29;20334;-27
2021/01/07 10:22:01;;;;;;;10.40;9.20;;;8.00;99.90;;;;;;4950537;29;20264;-28
2021/01/07 10:24:33;;;;;;;8.75;7.88;;;8.10;99.90;;;;;;4950149;29;20197;-27
2021/01/07 10:27:04;;;;;;;8.15;7.35;;;8.00;99.90;;;;;;4951647;29;20225;-27
2021/01/07 10:29:39;;;;;;;8.30;7.40;;;8.00;99.90;;;;;;4948942;29;20216;-27
2021/01/07 10:32:12;;;;;;;8.98;7.72;;;8.00;99.90;;;;;;4949063;29;20243;-26
2021/01/07 10:34:43;;;;;;;9.68;8.43;;;8.00;99.90;;;;;;4950291;29;20244;-26
2021/01/07 10:37:15;;;;;;;10.50;9.35;;;8.10;99.90;;;;;;4946235;29;20217;-26
2021/01/07 10:39:47;;;;;;;9.20;8.30;;;8.10;99.90;;;;;;4947109;29;20209;-27
2021/01/07 10:42:18;;;;;;;10.23;8.48;;;8.20;99.90;;;;;;4942496;28;20745;-27
2021/01/07 10:44:50;;;;;;;10.35;8.43;;;8.20;99.90;;;;;;4951268;29;20216;-27
2021/01/07 10:47:21;;;;;;;8.80;7.90;;;8.30;99.90;;;;;;4951499;29;20201;-26
2021/01/07 10:49:52;;;;;;;9.18;8.20;;;8.30;99.90;;;;;;4951256;29;20229;-28
2021/01/07 10:52:45;;;;;;;9.45;8.30;;;8.30;99.90;;;;;;4942364;29;20744;-27
2021/01/07 10:55:20;;;;;;;9.05;8.00;;;8.40;99.90;;;;;;4945187;29;20201;-27
2021/01/07 10:58:25;;;;;;;8.80;7.75;;;8.50;99.90;;;;;;4950799;29;20271;-26
2021/01/07 11:01:06;;;;;;;9.82;7.55;;;8.50;99.90;;;;;;4937760;29;20213;-27
2021/01/07 11:04:19;;;;;;;8.73;6.68;;;8.50;99.90;;;;;;4948081;29;20273;-27
2021/01/07 11:06:54;;;;;;;8.52;7.60;;;8.60;99.90;;;;;;4917573;29;20229;-26
2021/01/07 11:09:31;;;;;;;8.38;6.93;;;8.60;99.90;;;;;;4951418;29;20307;-27
2021/01/07 11:12:09;;;;;;;7.20;6.25;;;8.60;99.90;;;;;;4951027;29;20718;-26
2021/01/07 11:14:50;;;;;;;7.18;6.25;;;8.70;99.90;;;;;;4937654;29;20688;-27
2021/01/07 11:17:25;;;;;;;7.45;6.18;;;8.70;99.90;;;;;;4940048;29;20273;-27
2021/01/07 11:20:00;;;;;;;8.48;6.63;;;8.70;99.90;;;;;;4951291;29;20583;-27
2021/01/07 11:22:32;;;;;;;7.55;6.80;;;8.80;99.90;;;;;;4951111;29;20656;-27
2021/01/07 11:25:08;;;;;;;6.50;5.90;;;8.90;99.90;;;;;;4951265;29;20287;-26
2021/01/07 11:27:38;;;;;;;6.72;6.05;;;8.90;99.90;;;;;;4951011;29;20205;-26
2021/01/07 11:30:11;;;;;;;6.50;5.80;;;8.90;99.90;;;;;;4950707;29;20683;-26
2021/01/07 11:32:43;;;;;;;6.82;6.15;;;9.00;99.90;;;;;;4951151;29;20280;-26
2021/01/07 11:35:15;;;;;;;6.13;5.57;;;9.00;99.90;;;;;;4950988;29;20236;-26
2021/01/07 11:38:02;;;;;;;6.50;5.85;;;9.00;99.90;;;;;;4951196;29;20229;-27
2021/01/07 11:40:45;;;;;;;9.13;6.55;;;9.00;99.90;;;;;;4950464;29;20225;-26
2021/01/07 11:43:44;;;;;;;8.55;7.05;;;9.00;99.90;;;;;;4940802;29;20212;-26
2021/01/07 11:46:18;;;;;;;9.07;7.03;;;9.00;99.90;;;;;;4949938;29;20209;-27
2021/01/07 11:48:57;;;;;;;6.45;5.85;;;9.00;99.90;;;;;;4951047;29;20198;-27
2021/01/07 11:51:28;;;;;;;7.45;6.45;;;9.00;99.90;;;;;;4943600;29;20542;-27
2021/01/07 11:54:02;;;;;;;6.82;5.60;;;9.10;99.90;;;;;;4949272;29;20245;-27
2021/01/07 11:56:34;;;;;;;6.70;6.10;;;9.00;99.90;;;;;;4942346;29;20201;-27
2021/01/07 11:59:05;;;;;;;6.53;5.75;;;9.10;99.90;;;;;;4944359;29;20561;-28
2021/01/07 12:01:37;;;;;;;5.78;5.28;;;9.10;99.90;;;;;;4954598;29;20345;-27
2021/01/07 12:04:12;;;;;;;6.22;5.10;;;9.10;99.90;;;;;;4954043;29;20208;-27
2021/01/07 12:06:54;;;;;;;7.40;5.10;;;9.10;99.90;;;;;;4954249;29;20194;-27
2021/01/07 12:09:30;;;;;;;4.55;4.15;;;9.10;99.90;;;;;;4954028;29;20198;-29
2021/01/07 12:12:04;;;;;;;6.82;5.80;;;9.00;99.90;;;;;;4953957;29;20595;-26
2021/01/07 12:14:43;;;;;;;6.00;5.40;;;9.10;99.90;;;;;;4950453;29;20223;-26
2021/01/07 12:17:16;;;;;;;5.90;4.95;;;9.10;99.90;;;;;;4944965;29;20216;-26
2021/01/07 12:19:46;;;;;;;6.20;5.43;;;9.10;99.90;;;;;;4944105;29;20634;-26
2021/01/07 12:22:21;;;;;;;6.63;5.90;;;9.10;99.90;;;;;;4937541;29;20640;-26
2021/01/07 12:25:03;;;;;;;6.65;6.05;;;9.10;99.90;;;;;;4938989;29;20202;-26
2021/01/07 12:27:40;;;;;;;6.72;5.78;;;9.10;99.90;;;;;;4945488;29;20669;-26
2021/01/07 12:30:17;;;;;;;6.80;5.82;;;9.10;99.90;;;;;;4952978;29;20273;-26
2021/01/07 12:33:04;;;;;;;6.57;5.85;;;9.10;99.90;;;;;;4938181;29;20213;-27
2021/01/07 12:35:36;;;;;;;6.40;5.50;;;9.20;99.90;;;;;;4937725;29;20669;-26
2021/01/07 12:38:21;;;;;;;6.20;5.10;;;9.10;99.90;;;;;;4950375;29;20212;-27
2021/01/07 12:41:00;;;;;;;6.07;5.47;;;9.10;99.90;;;;;;4953150;29;20194;-26
2021/01/07 12:43:34;;;;;;;5.05;4.60;;;9.20;99.90;;;;;;4954075;29;20202;-27
2021/01/07 12:46:05;;;;;;;4.25;3.85;;;9.20;99.90;;;;;;4940634;29;20658;-26
2021/01/07 12:48:39;;;;;;;5.22;3.20;;;9.20;99.90;;;;;;4938261;29;20260;-26
2021/01/07 12:51:10;;;;;;;4.20;3.78;;;9.20;99.90;;;;;;4948257;29;20207;-26
2021/01/07 12:53:42;;;;;;;3.95;2.80;;;9.20;99.90;;;;;;4945809;29;20245;-27
2021/01/07 12:56:15;;;;;;;4.00;2.90;;;9.20;99.90;;;;;;4952433;29;20215;-26
2021/01/07 12:58:48;;;;;;;3.95;2.90;;;9.20;99.90;;;;;;4952939;29;20602;-26
2021/01/07 13:01:25;;;;;;;2.60;2.40;;;9.20;99.90;;;;;;4952872;29;20242;-26
2021/01/07 13:04:02;;;;;;;4.60;3.00;;;9.20;99.90;;;;;;4952582;28;20201;-27
2021/01/07 13:06:39;;;;;;;2.20;2.00;;;9.20;99.90;;;;;;4953299;29;20197;-27
2021/01/07 13:09:12;;;;;;;3.67;2.20;;;9.20;99.90;;;;;;4953389;29;20568;-27
2021/01/07 13:11:44;;;;;;;3.38;2.30;;;9.20;99.90;;;;;;4953364;29;20262;-27
2021/01/07 13:14:15;;;;;;;3.35;1.67;;;9.20;99.90;;;;;;4953057;29;20202;-27
2021/01/07 13:16:45;;;;;;;2.53;1.90;;;9.20;99.90;;;;;;4953272;29;20248;-27